Rhea — YP3227 — position and weather

sailwx.info

Track history (hours):
 
Tides and Currents Weather Stations Pressure Air Temp Water Temp Dewpoint Dewpoint Depression Visibility Wind Speed Wind Dir Waves Ship Positions

Rhea

Last reported at 2017-Oct-12 10:26 UTC. Time now 2017-Oct-20 08:49 UTC.
Position N 44°17' E 028°05'.

Length 80 m; draft 1.7 m.

Type: Ship. MMSI: 264163227.

Date/timePositionNaut miles runAvg speedWind from/ knotsBaromVisibWave heightAir tempDewpointWater temp
2017-Oct-12 10:26N 44°17' E 028°05'2 4.9
2017-Oct-12 10:00N 44°16' E 028°07'3 5.5
2017-Oct-12 09:30N 44°16' E 028°11'3 5.4
2017-Oct-12 09:00N 44°15' E 028°15'3 5.4
2017-Oct-12 08:30N 44°15' E 028°18'3 5.0
2017-Oct-12 08:00N 44°14' E 028°22'3 5.5
2017-Oct-12 07:28N 44°11' E 028°24'8 5.1
2017-Oct-12 05:54N 44°06' E 028°32'2 5.8
2017-Oct-12 05:30N 44°06' E 028°35'2 3.2
2017-Oct-12 04:58N 44°06' E 028°37'0 1.0
2017-Oct-12 04:31N 44°06' E 028°38'1 3.0
2017-Oct-12 04:00N 44°07' E 028°39'0 0.0
2017-Oct-12 03:30N 44°07' E 028°39'0 0.1
2017-Oct-12 02:57N 44°07' E 028°39'1 3.0
2017-Oct-12 02:31N 44°09' E 028°40'1 1.3
2017-Oct-12 01:59N 44°09' E 028°39'0 0.0
2017-Oct-12 01:29N 44°09' E 028°39'0 0.0
2017-Oct-12 00:56N 44°09' E 028°39'0 0.0
2017-Oct-12 00:29N 44°09' E 028°39'0 0.0
2017-Oct-11 23:59N 44°09' E 028°39'0 0.0
2017-Oct-11 23:29N 44°09' E 028°39'0 0.0
2017-Oct-11 22:59N 44°09' E 028°39'0 0.0
2017-Oct-11 22:29N 44°09' E 028°39'0 0.0
2017-Oct-11 21:59N 44°09' E 028°39'0 0.0
2017-Oct-11 21:29N 44°09' E 028°39'0 0.0
2017-Oct-11 20:56N 44°09' E 028°39'0 0.0
2017-Oct-11 20:26N 44°09' E 028°39'0 0.0
2017-Oct-11 19:59N 44°09' E 028°39'0 0.0
2017-Oct-11 19:29N 44°09' E 028°39'0 0.0
2017-Oct-11 18:59N 44°09' E 028°39'0 0.0
2017-Oct-11 18:29N 44°09' E 028°39'0 0.0
2017-Oct-11 17:59N 44°09' E 028°39'0 0.0
2017-Oct-11 17:29N 44°09' E 028°39'0 0.0
2017-Oct-11 16:59N 44°09' E 028°39'2 0.1
2017-Oct-10 23:58N 44°07' E 028°39'0 0.0
2017-Oct-10 23:28N 44°07' E 028°39'0 0.0
2017-Oct-10 22:58N 44°07' E 028°39'0 0.0
2017-Oct-10 22:28N 44°07' E 028°39'0 0.0
2017-Oct-10 21:58N 44°07' E 028°39'0 0.0
2017-Oct-10 21:28N 44°07' E 028°39'0 0.0
2017-Oct-10 20:58N 44°07' E 028°39'0 0.0
2017-Oct-10 20:28N 44°07' E 028°39'0 0.0
2017-Oct-10 19:58N 44°07' E 028°39'0 0.0
2017-Oct-10 19:28N 44°07' E 028°39'0 0.0
2017-Oct-10 18:58N 44°07' E 028°39'0 0.0
2017-Oct-10 18:28N 44°07' E 028°39'0 0.0
2017-Oct-10 17:58N 44°07' E 028°39'0 0.0
2017-Oct-10 17:28N 44°07' E 028°39'0 0.0
2017-Oct-10 16:58N 44°07' E 028°39'0 0.0
2017-Oct-10 16:28N 44°07' E 028°39'0 0.0
2017-Oct-10 15:58N 44°07' E 028°39'0 0.0
2017-Oct-10 15:25N 44°07' E 028°39'0 0.0
2017-Oct-10 14:58N 44°07' E 028°39'0 0.0
2017-Oct-10 13:58N 44°07' E 028°39'0 0.0
2017-Oct-10 13:28N 44°07' E 028°39'0 0.0
2017-Oct-10 12:58N 44°07' E 028°39'0 0.0
2017-Oct-10 12:28N 44°07' E 028°39'0 0.4
2017-Oct-10 11:58N 44°07' E 028°39'0 0.1
2017-Oct-10 11:22N 44°07' E 028°39'0 0.0
2017-Oct-10 10:58N 44°07' E 028°39'0 0.0
2017-Oct-10 10:28N 44°07' E 028°39'0 0.0
2017-Oct-10 09:55N 44°07' E 028°39'0 0.0
2017-Oct-10 09:31N 44°07' E 028°39'0 0.0
2017-Oct-10 08:58N 44°07' E 028°39'0 0.0
2017-Oct-10 08:28N 44°07' E 028°39'0 0.0
2017-Oct-10 07:55N 44°07' E 028°39'0 0.0
2017-Oct-10 07:28N 44°07' E 028°39'0 0.0
2017-Oct-10 06:55N 44°07' E 028°39'0 0.0
2017-Oct-10 06:28N 44°07' E 028°39'0 0.0
2017-Oct-10 05:58N 44°07' E 028°39'0 0.0
2017-Oct-10 05:28N 44°07' E 028°39'0 0.0
2017-Oct-10 04:58N 44°07' E 028°39'0 0.0
2017-Oct-10 04:28N 44°07' E 028°39'0 0.0
2017-Oct-10 03:58N 44°07' E 028°39'0 0.0
2017-Oct-10 03:28N 44°07' E 028°39'0 0.0
2017-Oct-10 02:58N 44°07' E 028°39'0 0.0
2017-Oct-10 02:28N 44°07' E 028°39'0 0.0
2017-Oct-10 01:58N 44°07' E 028°39'0 0.0
2017-Oct-10 01:28N 44°07' E 028°39'0 0.0
2017-Oct-10 00:58N 44°07' E 028°39'0 0.0
2017-Oct-10 00:28N 44°07' E 028°39'0 0.0
2017-Oct-09 23:58N 44°07' E 028°39'0 0.0
2017-Oct-09 23:28N 44°07' E 028°39'0 0.0
2017-Oct-09 22:58N 44°07' E 028°39'0 0.0
2017-Oct-09 22:28N 44°07' E 028°39'0 0.0
2017-Oct-09 21:58N 44°07' E 028°39'0 0.0
2017-Oct-09 21:28N 44°07' E 028°39'0 0.0
2017-Oct-09 20:58N 44°07' E 028°39'0 0.0
2017-Oct-09 20:28N 44°07' E 028°39'0 0.0
2017-Oct-09 19:58N 44°07' E 028°39'0 0.0
2017-Oct-09 19:28N 44°07' E 028°39'0 0.0
2017-Oct-09 18:58N 44°07' E 028°39'0 0.0
2017-Oct-09 18:28N 44°07' E 028°39'0 0.0
2017-Oct-09 17:58N 44°07' E 028°39'0 0.0
2017-Oct-09 17:28N 44°07' E 028°39'0 0.0
2017-Oct-09 16:58N 44°07' E 028°39'0 0.0
2017-Oct-09 16:25N 44°07' E 028°39'0 0.0
2017-Oct-09 15:58N 44°07' E 028°39'0 0.0
2017-Oct-09 15:28N 44°07' E 028°39'0 0.0
2017-Oct-09 14:58N 44°07' E 028°39'0 0.0
2017-Oct-09 14:25N 44°07' E 028°39'0 0.0
2017-Oct-09 13:58N 44°07' E 028°39'0 0.0
2017-Oct-09 13:28N 44°07' E 028°39'0 0.0
2017-Oct-09 12:58N 44°07' E 028°39'0 0.0
2017-Oct-09 12:28N 44°07' E 028°39'0 0.0
2017-Oct-09 11:58N 44°07' E 028°39'0 0.0
2017-Oct-09 11:28N 44°07' E 028°39'0 0.0
2017-Oct-09 10:58N 44°07' E 028°39'0 0.0
2017-Oct-09 10:28N 44°07' E 028°39'0 0.0
2017-Oct-09 09:58N 44°07' E 028°39'0 0.0
2017-Oct-09 09:28N 44°07' E 028°39'0 0.0
2017-Oct-09 08:58N 44°07' E 028°39'0 0.0
2017-Oct-09 08:28N 44°07' E 028°39'0 0.0
2017-Oct-09 07:58N 44°07' E 028°39'0 0.0
2017-Oct-09 07:28N 44°07' E 028°39'0 0.0
2017-Oct-09 06:55N 44°07' E 028°39'0 0.0
2017-Oct-09 06:28N 44°07' E 028°39'0 0.0
2017-Oct-09 05:58N 44°07' E 028°39'0 0.0
2017-Oct-09 05:28N 44°07' E 028°39'0 0.0
2017-Oct-09 04:58N 44°07' E 028°39'0 0.0
2017-Oct-09 04:28N 44°07' E 028°39'0 0.0
2017-Oct-09 03:55N 44°07' E 028°39'0 0.0
2017-Oct-09 03:28N 44°07' E 028°39'0 0.0
2017-Oct-09 02:58N 44°07' E 028°39'0 0.0
2017-Oct-09 02:28N 44°07' E 028°39'0 0.0
2017-Oct-09 01:58N 44°07' E 028°39'0 0.0
2017-Oct-09 01:28N 44°07' E 028°39'0 0.0
2017-Oct-09 00:58N 44°07' E 028°39'0 0.0
2017-Oct-09 00:28N 44°07' E 028°39'0 0.0
2017-Oct-08 23:58N 44°07' E 028°39'0 0.0
2017-Oct-08 23:28N 44°07' E 028°39'0 0.0
2017-Oct-08 22:58N 44°07' E 028°39'0 0.0
2017-Oct-08 22:28N 44°07' E 028°39'0 0.0
2017-Oct-08 21:55N 44°07' E 028°39'0 0.0
2017-Oct-08 21:28N 44°07' E 028°39'0 0.0
2017-Oct-08 20:58N 44°07' E 028°39'0 0.0
2017-Oct-08 20:28N 44°07' E 028°39'0 0.0
2017-Oct-08 19:58N 44°07' E 028°39'0 0.0
2017-Oct-08 19:28N 44°07' E 028°39'0 0.0
2017-Oct-08 18:58N 44°07' E 028°39'0 0.0
2017-Oct-08 18:28N 44°07' E 028°39'0 0.0
2017-Oct-08 17:58N 44°07' E 028°39'0 0.0
2017-Oct-08 17:28N 44°07' E 028°39'0 0.0
2017-Oct-08 16:58N 44°07' E 028°39'0 0.0
2017-Oct-08 16:28N 44°07' E 028°39'0 0.0
2017-Oct-08 15:58N 44°07' E 028°39'0 0.0
2017-Oct-08 15:28N 44°07' E 028°39'0 0.0
2017-Oct-08 14:58N 44°07' E 028°39'0 0.0
2017-Oct-08 14:28N 44°07' E 028°39'0 0.0
2017-Oct-08 13:58N 44°07' E 028°39'0 0.0
2017-Oct-08 13:28N 44°07' E 028°39'0 0.0
2017-Oct-08 12:58N 44°07' E 028°39'0 0.0
2017-Oct-08 12:22N 44°07' E 028°39'0 0.0
2017-Oct-08 11:58N 44°07' E 028°39'0 0.0
2017-Oct-08 11:28N 44°07' E 028°39'0 0.0
2017-Oct-08 10:58N 44°07' E 028°39'0 0.0
2017-Oct-08 10:28N 44°07' E 028°39'0 0.0
2017-Oct-08 09:58N 44°07' E 028°39'0 0.0
2017-Oct-08 09:28N 44°07' E 028°39'0 0.0
2017-Oct-08 08:58N 44°07' E 028°39'0 0.0
2017-Oct-08 08:25N 44°07' E 028°39'0 0.0
2017-Oct-08 07:58N 44°07' E 028°39'0 0.0
2017-Oct-08 07:28N 44°07' E 028°39'0 0.0
2017-Oct-08 06:58N 44°07' E 028°39'0 0.0
2017-Oct-08 06:28N 44°07' E 028°39'0 0.0
2017-Oct-08 05:58N 44°07' E 028°39'0 0.0
2017-Oct-08 05:28N 44°07' E 028°39'0 0.0
2017-Oct-08 04:55N 44°07' E 028°39'0 0.0
2017-Oct-08 04:28N 44°07' E 028°39'0 0.0
2017-Oct-08 03:58N 44°07' E 028°39'0 0.0
2017-Oct-08 03:28N 44°07' E 028°39'0 0.0
2017-Oct-08 02:58N 44°07' E 028°39'0 0.0
2017-Oct-08 02:28N 44°07' E 028°39'0 0.0
2017-Oct-08 01:52N 44°07' E 028°39'0 0.0
2017-Oct-08 01:28N 44°07' E 028°39'0 0.0
2017-Oct-08 00:58N 44°07' E 028°39'0 0.0
2017-Oct-08 00:28N 44°07' E 028°39'0 0.0
2017-Oct-07 23:58N 44°07' E 028°39'0 0.0
2017-Oct-07 23:28N 44°07' E 028°39'0 0.0
2017-Oct-07 22:58N 44°07' E 028°39'0 0.0
2017-Oct-07 22:28N 44°07' E 028°39'0 0.0
2017-Oct-07 21:58N 44°07' E 028°39'0 0.0
2017-Oct-07 21:28N 44°07' E 028°39'0 0.0
2017-Oct-07 20:58N 44°07' E 028°39'0 0.0
2017-Oct-07 20:28N 44°07' E 028°39'0 0.0
2017-Oct-07 19:58N 44°07' E 028°39'0 0.0
2017-Oct-07 19:28N 44°07' E 028°39'0 0.0
2017-Oct-07 18:58N 44°07' E 028°39'0 0.0
2017-Oct-07 18:28N 44°07' E 028°39'0 0.0
2017-Oct-07 17:58N 44°07' E 028°39'0 0.0
2017-Oct-07 17:28N 44°07' E 028°39'0 0.0
2017-Oct-07 16:58N 44°07' E 028°39'0 0.0
2017-Oct-07 16:28N 44°07' E 028°39'0 0.0
2017-Oct-07 15:58N 44°07' E 028°39'0 0.0
2017-Oct-07 15:28N 44°07' E 028°39'0 0.0
2017-Oct-07 14:58N 44°07' E 028°39'0 0.0
2017-Oct-07 14:28N 44°07' E 028°39'0 0.0
2017-Oct-07 13:58N 44°07' E 028°39'0 0.0
2017-Oct-07 13:25N 44°07' E 028°39'0 0.0
2017-Oct-07 12:58N 44°07' E 028°39'0 0.0
2017-Oct-07 12:28N 44°07' E 028°39'0 0.0
2017-Oct-07 11:58N 44°07' E 028°39'0 0.0
2017-Oct-07 11:28N 44°07' E 028°39'0 0.0
2017-Oct-07 10:58N 44°07' E 028°39'0 0.0
2017-Oct-07 10:28N 44°07' E 028°39'0 0.0
2017-Oct-07 09:58N 44°07' E 028°39'0 0.0
2017-Oct-07 09:28N 44°07' E 028°39'0 0.0
2017-Oct-07 08:58N 44°07' E 028°39'0 0.0
2017-Oct-07 08:28N 44°07' E 028°39'0 0.0
2017-Oct-07 07:58N 44°07' E 028°39'0 0.0
2017-Oct-07 07:28N 44°07' E 028°39'0 0.0
2017-Oct-07 06:58N 44°07' E 028°39'0 0.0
2017-Oct-07 06:28N 44°07' E 028°39'0 0.0
2017-Oct-07 05:55N 44°07' E 028°39'0 0.0
2017-Oct-07 05:28N 44°07' E 028°39'0 0.0
2017-Oct-07 04:58N 44°07' E 028°39'0 0.0
2017-Oct-07 04:28N 44°07' E 028°39'0 0.0
2017-Oct-07 03:58N 44°07' E 028°39'0 0.0
2017-Oct-07 03:28N 44°07' E 028°39'0 0.0
2017-Oct-07 02:52N 44°07' E 028°39'0 0.0
2017-Oct-07 02:28N 44°07' E 028°39'0 0.0
2017-Oct-07 01:58N 44°07' E 028°39'0 0.0
2017-Oct-07 01:28N 44°07' E 028°39'0 0.0
2017-Oct-07 00:55N 44°07' E 028°39'0 0.0
2017-Oct-07 00:28N 44°07' E 028°39'0 0.0
2017-Oct-06 23:58N 44°07' E 028°39'0 0.0
2017-Oct-06 23:28N 44°07' E 028°39'0 0.0
2017-Oct-06 22:58N 44°07' E 028°39'0 0.0
2017-Oct-06 22:28N 44°07' E 028°39'0 0.0
2017-Oct-06 21:58N 44°07' E 028°39'0 0.0
2017-Oct-06 21:28N 44°07' E 028°39'0 0.0
2017-Oct-06 20:58N 44°07' E 028°39'0 0.0
2017-Oct-06 20:25N 44°07' E 028°39'0 0.0
2017-Oct-06 19:58N 44°07' E 028°39'0 0.0
2017-Oct-06 19:28N 44°07' E 028°39'0 0.0
2017-Oct-06 18:58N 44°07' E 028°39'0 0.0
2017-Oct-06 18:28N 44°07' E 028°39'0 0.0
2017-Oct-06 17:58N 44°07' E 028°39'0 0.0
2017-Oct-06 17:28N 44°07' E 028°39'0 0.0
2017-Oct-06 16:58N 44°07' E 028°39'0 0.0
2017-Oct-06 16:28N 44°07' E 028°39'0 0.0
2017-Oct-06 15:58N 44°07' E 028°39'0 0.0
2017-Oct-06 15:28N 44°07' E 028°39'0 0.0
2017-Oct-06 14:58N 44°07' E 028°39'0 0.0
2017-Oct-06 14:28N 44°07' E 028°39'0 0.0
2017-Oct-06 13:58N 44°07' E 028°39'0 0.0
2017-Oct-06 13:28N 44°07' E 028°39'0 0.0
2017-Oct-06 12:58N 44°07' E 028°39'0 0.0
2017-Oct-06 12:10N 44°07' E 028°39'0 0.0
2017-Oct-06 11:58N 44°07' E 028°39'0 0.0
2017-Oct-06 11:22N 44°07' E 028°39'0 0.0
2017-Oct-06 10:58N 44°07' E 028°39'0 0.0
2017-Oct-06 10:28N 44°07' E 028°39'0 0.0
2017-Oct-06 09:58N 44°07' E 028°39'0 0.0
2017-Oct-06 09:28N 44°07' E 028°39'0 0.0
2017-Oct-06 08:58N 44°07' E 028°39'0 0.0
2017-Oct-06 08:28N 44°07' E 028°39'0 0.0
2017-Oct-06 07:58N 44°07' E 028°39'0 0.0
2017-Oct-06 07:28N 44°07' E 028°39'0 0.0
2017-Oct-06 06:58N 44°07' E 028°39'0 0.0
2017-Oct-06 06:28N 44°07' E 028°39'0 0.0
2017-Oct-06 05:58N 44°07' E 028°39'0 0.0
2017-Oct-06 05:28N 44°07' E 028°39'0 0.0
2017-Oct-06 04:58N 44°07' E 028°39'0 0.0
2017-Oct-06 04:28N 44°07' E 028°39'0 0.0
2017-Oct-06 03:55N 44°07' E 028°39'0 0.0
2017-Oct-06 03:28N 44°07' E 028°39'0 0.0
2017-Oct-06 02:58N 44°07' E 028°39'0 0.0
2017-Oct-06 02:28N 44°07' E 028°39'0 0.0
2017-Oct-06 01:58N 44°07' E 028°39'0 0.0
2017-Oct-06 01:28N 44°07' E 028°39'0 0.0
2017-Oct-06 00:58N 44°07' E 028°39'0 0.0
2017-Oct-06 00:28N 44°07' E 028°39'0 0.0
2017-Oct-05 23:58N 44°07' E 028°39'0 0.0
2017-Oct-05 23:28N 44°07' E 028°39'0 0.0
2017-Oct-05 22:55N 44°07' E 028°39'0 0.0
2017-Oct-05 22:28N 44°07' E 028°39'0 0.0
2017-Oct-05 21:58N 44°07' E 028°39'0 0.0
2017-Oct-05 21:28N 44°07' E 028°39'0 0.0
2017-Oct-05 20:55N 44°07' E 028°39'0 0.0
2017-Oct-05 20:25N 44°07' E 028°39'0 0.0
2017-Oct-05 19:58N 44°07' E 028°39'0 0.0
2017-Oct-05 19:28N 44°07' E 028°39'0 0.0
2017-Oct-05 18:58N 44°07' E 028°39'0 0.0
2017-Oct-05 18:28N 44°07' E 028°39'0 0.0
2017-Oct-05 17:58N 44°07' E 028°39'0 0.0
2017-Oct-05 17:28N 44°07' E 028°39'0 0.0
2017-Oct-05 16:58N 44°07' E 028°39'0 0.0
2017-Oct-05 15:28N 44°07' E 028°39'0 0.0
2017-Oct-05 14:58N 44°07' E 028°39'0 0.0
2017-Oct-05 14:28N 44°07' E 028°39'0 0.0
2017-Oct-05 13:58N 44°07' E 028°39'0 0.0
2017-Oct-05 13:28N 44°07' E 028°39'0 0.0
2017-Oct-05 12:58N 44°07' E 028°39'0 0.0
2017-Oct-05 12:28N 44°07' E 028°39'0 0.0
2017-Oct-05 11:55N 44°07' E 028°39'0 0.0
2017-Oct-05 11:28N 44°07' E 028°39'0 0.0
2017-Oct-05 10:58N 44°07' E 028°39'0 0.0
2017-Oct-05 10:28N 44°07' E 028°39'0 0.0
2017-Oct-05 09:58N 44°07' E 028°39'0 0.0
2017-Oct-05 09:28N 44°07' E 028°39'0 0.0
2017-Oct-05 08:58N 44°07' E 028°39'0 0.0
2017-Oct-05 08:28N 44°07' E 028°39'0 0.0
2017-Oct-05 07:58N 44°07' E 028°39'0 0.0
2017-Oct-05 07:28N 44°07' E 028°39'0 0.0
2017-Oct-05 06:58N 44°07' E 028°39'0 0.0
2017-Oct-05 06:28N 44°07' E 028°39'0 0.0
2017-Oct-05 05:58N 44°07' E 028°39'0 0.0
2017-Oct-05 05:28N 44°07' E 028°39'0 0.0
2017-Oct-05 04:58N 44°07' E 028°39'0 0.0
2017-Oct-05 04:28N 44°07' E 028°39'0 0.0
2017-Oct-05 03:58N 44°07' E 028°39'0 0.0
2017-Oct-05 03:28N 44°07' E 028°39'0 0.0
2017-Oct-05 02:58N 44°07' E 028°39'0 0.0
2017-Oct-05 02:28N 44°07' E 028°39'0 0.0
2017-Oct-05 01:58N 44°07' E 028°39'0 0.0
2017-Oct-05 01:28N 44°07' E 028°39'0 0.0
2017-Oct-05 00:58N 44°07' E 028°39'0 0.0
2017-Oct-05 00:28N 44°07' E 028°39'0 0.0
2017-Oct-04 23:58N 44°07' E 028°39'0 0.0
2017-Oct-04 23:28N 44°07' E 028°39'0 0.0
2017-Oct-04 22:58N 44°07' E 028°39'0 0.0
2017-Oct-04 22:28N 44°07' E 028°39'0 0.0
2017-Oct-04 21:58N 44°07' E 028°39'0 0.0
2017-Oct-04 21:28N 44°07' E 028°39'0 0.0
2017-Oct-04 20:52N 44°07' E 028°39'0 0.0
2017-Oct-04 20:28N 44°07' E 028°39'0 0.0
2017-Oct-04 19:58N 44°07' E 028°39'0 0.0
2017-Oct-04 19:19N 44°07' E 028°39'0 0.0
2017-Oct-04 18:58N 44°07' E 028°39'0 0.0
2017-Oct-04 18:28N 44°07' E 028°39'0 0.0
2017-Oct-04 17:55N 44°07' E 028°39'0 0.0
2017-Oct-04 17:28N 44°07' E 028°39'0 0.0
2017-Oct-04 16:58N 44°07' E 028°39'0 0.0
2017-Oct-04 16:28N 44°07' E 028°39'0 0.0
2017-Oct-04 15:58N 44°07' E 028°39'0 0.0
2017-Oct-04 15:25N 44°07' E 028°39'0 0.0
2017-Oct-04 14:58N 44°07' E 028°39'0 0.0
2017-Oct-04 14:28N 44°07' E 028°39'0 0.0
2017-Oct-04 13:58N 44°07' E 028°39'0 0.0
2017-Oct-04 13:28N 44°07' E 028°39'0 0.0
2017-Oct-04 12:58N 44°07' E 028°39'0 0.0
2017-Oct-04 12:28N 44°07' E 028°39'0 0.0
2017-Oct-04 11:58N 44°07' E 028°39'0 0.0
2017-Oct-04 11:28N 44°07' E 028°39'0 0.0
2017-Oct-04 10:58N 44°07' E 028°39'0 0.0
2017-Oct-04 10:28N 44°07' E 028°39'0 0.0
2017-Oct-04 09:55N 44°07' E 028°39'0 0.0
2017-Oct-04 09:28N 44°07' E 028°39'0 0.0
2017-Oct-04 08:58N 44°07' E 028°39'0 0.0
2017-Oct-04 08:28N 44°07' E 028°39'0 0.0
2017-Oct-04 07:58N 44°07' E 028°39'0 0.0
2017-Oct-04 07:28N 44°07' E 028°39'0 0.0
2017-Oct-04 06:58N 44°07' E 028°39'0 0.0
2017-Oct-04 06:28N 44°07' E 028°39'0 0.0
2017-Oct-04 05:58N 44°07' E 028°39'0 0.0
2017-Oct-04 05:28N 44°07' E 028°39'0 0.0
2017-Oct-04 04:58N 44°07' E 028°39'0 0.0
2017-Oct-04 04:28N 44°07' E 028°39'0 0.0
2017-Oct-04 03:55N 44°07' E 028°39'0 0.0
2017-Oct-04 03:28N 44°07' E 028°39'0 0.0
2017-Oct-04 02:58N 44°07' E 028°39'0 0.0
2017-Oct-04 02:28N 44°07' E 028°39'0 0.0
2017-Oct-04 01:58N 44°07' E 028°39'0 0.0
2017-Oct-04 01:28N 44°07' E 028°39'0 0.0
2017-Oct-04 00:58N 44°07' E 028°39'0 0.0
2017-Oct-04 00:28N 44°07' E 028°39'0 0.0
2017-Oct-03 23:58N 44°07' E 028°39'0 0.0
2017-Oct-03 23:28N 44°07' E 028°39'0 0.0
2017-Oct-03 22:58N 44°07' E 028°39'0 0.0
2017-Oct-03 22:28N 44°07' E 028°39'0 0.0
2017-Oct-03 21:58N 44°07' E 028°39'0 0.0
2017-Oct-03 21:25N 44°07' E 028°39'0 0.0
2017-Oct-03 20:58N 44°07' E 028°39'0 0.0
2017-Oct-03 20:28N 44°07' E 028°39'0 0.0
2017-Oct-03 19:58N 44°07' E 028°39'0 0.0
2017-Oct-03 19:28N 44°07' E 028°39'0 0.0
2017-Oct-03 18:58N 44°07' E 028°39'0 0.0
2017-Oct-03 18:28N 44°07' E 028°39'0 0.0
2017-Oct-03 17:58N 44°07' E 028°39'0 0.0
2017-Oct-03 17:28N 44°07' E 028°39'0 0.0
2017-Oct-03 16:58N 44°07' E 028°39'0 0.0
2017-Oct-03 16:28N 44°07' E 028°39'0 0.0
2017-Oct-03 15:58N 44°07' E 028°39'0 0.0
2017-Oct-03 15:28N 44°07' E 028°39'0 0.0
2017-Oct-03 14:58N 44°07' E 028°39'0 0.0
2017-Oct-03 13:55N 44°07' E 028°39'0 0.0
2017-Oct-03 13:28N 44°07' E 028°39'0 0.0
2017-Oct-03 12:58N 44°07' E 028°39'0 0.0
2017-Oct-03 12:28N 44°07' E 028°39'0 0.0
2017-Oct-03 11:58N 44°07' E 028°39'0 0.0
2017-Oct-03 11:28N 44°07' E 028°39'0 0.0
2017-Oct-03 10:58N 44°07' E 028°39'0 0.0
2017-Oct-03 10:28N 44°07' E 028°39'0 0.0
2017-Oct-03 09:58N 44°07' E 028°39'0 0.0
2017-Oct-03 09:28N 44°07' E 028°39'0 0.0
2017-Oct-03 08:55N 44°07' E 028°39'0 0.0
2017-Oct-03 08:28N 44°07' E 028°39'0 0.0
2017-Oct-03 07:58N 44°07' E 028°39'0 0.0
2017-Oct-03 07:28N 44°07' E 028°39'0 0.0
2017-Oct-03 06:58N 44°07' E 028°39'0 0.0
2017-Oct-03 06:28N 44°07' E 028°39'0 0.0
2017-Oct-03 05:58N 44°07' E 028°39'0 0.0
2017-Oct-03 05:28N 44°07' E 028°39'0 0.0
2017-Oct-03 04:58N 44°07' E 028°39'0 0.0
2017-Oct-03 04:28N 44°07' E 028°39'0 0.0
2017-Oct-03 03:58N 44°07' E 028°39'0 0.0
2017-Oct-03 03:25N 44°07' E 028°39'0 0.0
2017-Oct-03 02:58N 44°07' E 028°39'0 0.0
2017-Oct-03 02:28N 44°07' E 028°39'0 0.0
2017-Oct-03 01:58N 44°07' E 028°39'0 0.0
2017-Oct-03 01:28N 44°07' E 028°39'0 0.0
2017-Oct-03 00:58N 44°07' E 028°39'0 0.0
2017-Oct-03 00:28N 44°07' E 028°39'0 0.0
2017-Oct-02 23:58N 44°07' E 028°39'0 0.0
2017-Oct-02 23:28N 44°07' E 028°39'0 0.0
2017-Oct-02 22:58N 44°07' E 028°39'0 0.0
2017-Oct-02 22:28N 44°07' E 028°39'0 0.0
2017-Oct-02 21:58N 44°07' E 028°39'0 0.0
2017-Oct-02 21:25N 44°07' E 028°39'0 0.0
2017-Oct-02 20:55N 44°07' E 028°39'0 0.0
2017-Oct-02 20:25N 44°07' E 028°39'0 0.0
2017-Oct-02 19:58N 44°07' E 028°39'0 0.0
2017-Oct-02 19:28N 44°07' E 028°39'0 0.0
2017-Oct-02 18:55N 44°07' E 028°39'0 0.0
2017-Oct-02 18:28N 44°07' E 028°39'0 0.0
2017-Oct-02 17:58N 44°07' E 028°39'0 0.0
2017-Oct-02 17:28N 44°07' E 028°39'0 0.0
2017-Oct-02 16:55N 44°07' E 028°39'0 0.0
2017-Oct-02 16:28N 44°07' E 028°39'2 5.0
2017-Oct-02 16:01N 44°09' E 028°40'0 0.2
2017-Oct-02 15:28N 44°09' E 028°40'0 0.0
2017-Oct-02 14:58N 44°09' E 028°40'0 0.0
2017-Oct-02 14:28N 44°09' E 028°40'0 0.0
2017-Oct-02 13:58N 44°09' E 028°40'0 0.0
2017-Oct-02 13:28N 44°09' E 028°40'0 0.0
2017-Oct-02 12:58N 44°09' E 028°40'0 0.0
2017-Oct-02 12:28N 44°09' E 028°40'1 1.6
2017-Oct-02 12:00N 44°09' E 028°40'2 3.3
2017-Oct-02 11:31N 44°07' E 028°39'1 1.9
2017-Oct-02 11:00N 44°06' E 028°39'0 0.0
2017-Oct-02 10:30N 44°06' E 028°39'  
Track history (hours):
 
Tides and Currents Weather Stations Pressure Air Temp Water Temp Dewpoint Dewpoint Depression Visibility Wind Speed Wind Dir Waves Ship Positions

Rhea

Last reported at 2017-Oct-12 10:26 UTC. Time now 2017-Oct-20 08:49 UTC.
Position N 44°17' E 028°05'.

Length 80 m; draft 1.7 m.

Type: Ship. MMSI: 264163227.

Date/timePositionNaut miles runAvg speedWind from/ knotsBaromVisibWave heightAir tempDewpointWater temp
2017-Oct-12 10:26N 44°17' E 028°05'2 4.9
2017-Oct-12 10:00N 44°16' E 028°07'3 5.5
2017-Oct-12 09:30N 44°16' E 028°11'3 5.4
2017-Oct-12 09:00N 44°15' E 028°15'3 5.4
2017-Oct-12 08:30N 44°15' E 028°18'3 5.0
2017-Oct-12 08:00N 44°14' E 028°22'3 5.5
2017-Oct-12 07:28N 44°11' E 028°24'8 5.1
2017-Oct-12 05:54N 44°06' E 028°32'2 5.8
2017-Oct-12 05:30N 44°06' E 028°35'2 3.2
2017-Oct-12 04:58N 44°06' E 028°37'0 1.0
2017-Oct-12 04:31N 44°06' E 028°38'1 3.0
2017-Oct-12 04:00N 44°07' E 028°39'0 0.0
2017-Oct-12 03:30N 44°07' E 028°39'0 0.1
2017-Oct-12 02:57N 44°07' E 028°39'1 3.0
2017-Oct-12 02:31N 44°09' E 028°40'1 1.3
2017-Oct-12 01:59N 44°09' E 028°39'0 0.0
2017-Oct-12 01:29N 44°09' E 028°39'0 0.0
2017-Oct-12 00:56N 44°09' E 028°39'0 0.0
2017-Oct-12 00:29N 44°09' E 028°39'0 0.0
2017-Oct-11 23:59N 44°09' E 028°39'0 0.0
2017-Oct-11 23:29N 44°09' E 028°39'0 0.0
2017-Oct-11 22:59N 44°09' E 028°39'0 0.0
2017-Oct-11 22:29N 44°09' E 028°39'0 0.0
2017-Oct-11 21:59N 44°09' E 028°39'0 0.0
2017-Oct-11 21:29N 44°09' E 028°39'0 0.0
2017-Oct-11 20:56N 44°09' E 028°39'0 0.0
2017-Oct-11 20:26N 44°09' E 028°39'0 0.0
2017-Oct-11 19:59N 44°09' E 028°39'0 0.0
2017-Oct-11 19:29N 44°09' E 028°39'0 0.0
2017-Oct-11 18:59N 44°09' E 028°39'0 0.0
2017-Oct-11 18:29N 44°09' E 028°39'0 0.0
2017-Oct-11 17:59N 44°09' E 028°39'0 0.0
2017-Oct-11 17:29N 44°09' E 028°39'0 0.0
2017-Oct-11 16:59N 44°09' E 028°39'2 0.1
2017-Oct-10 23:58N 44°07' E 028°39'0 0.0
2017-Oct-10 23:28N 44°07' E 028°39'0 0.0
2017-Oct-10 22:58N 44°07' E 028°39'0 0.0
2017-Oct-10 22:28N 44°07' E 028°39'0 0.0
2017-Oct-10 21:58N 44°07' E 028°39'0 0.0
2017-Oct-10 21:28N 44°07' E 028°39'0 0.0
2017-Oct-10 20:58N 44°07' E 028°39'0 0.0
2017-Oct-10 20:28N 44°07' E 028°39'0 0.0
2017-Oct-10 19:58N 44°07' E 028°39'0 0.0
2017-Oct-10 19:28N 44°07' E 028°39'0 0.0
2017-Oct-10 18:58N 44°07' E 028°39'0 0.0
2017-Oct-10 18:28N 44°07' E 028°39'0 0.0
2017-Oct-10 17:58N 44°07' E 028°39'0 0.0
2017-Oct-10 17:28N 44°07' E 028°39'0 0.0
2017-Oct-10 16:58N 44°07' E 028°39'0 0.0
2017-Oct-10 16:28N 44°07' E 028°39'0 0.0
2017-Oct-10 15:58N 44°07' E 028°39'0 0.0
2017-Oct-10 15:25N 44°07' E 028°39'0 0.0
2017-Oct-10 14:58N 44°07' E 028°39'0 0.0
2017-Oct-10 13:58N 44°07' E 028°39'0 0.0
2017-Oct-10 13:28N 44°07' E 028°39'0 0.0
2017-Oct-10 12:58N 44°07' E 028°39'0 0.0
2017-Oct-10 12:28N 44°07' E 028°39'0 0.4
2017-Oct-10 11:58N 44°07' E 028°39'0 0.1
2017-Oct-10 11:22N 44°07' E 028°39'0 0.0
2017-Oct-10 10:58N 44°07' E 028°39'0 0.0
2017-Oct-10 10:28N 44°07' E 028°39'0 0.0
2017-Oct-10 09:55N 44°07' E 028°39'0 0.0
2017-Oct-10 09:31N 44°07' E 028°39'0 0.0
2017-Oct-10 08:58N 44°07' E 028°39'0 0.0
2017-Oct-10 08:28N 44°07' E 028°39'0 0.0
2017-Oct-10 07:55N 44°07' E 028°39'0 0.0
2017-Oct-10 07:28N 44°07' E 028°39'0 0.0
2017-Oct-10 06:55N 44°07' E 028°39'0 0.0
2017-Oct-10 06:28N 44°07' E 028°39'0 0.0
2017-Oct-10 05:58N 44°07' E 028°39'0 0.0
2017-Oct-10 05:28N 44°07' E 028°39'0 0.0
2017-Oct-10 04:58N 44°07' E 028°39'0 0.0
2017-Oct-10 04:28N 44°07' E 028°39'0 0.0
2017-Oct-10 03:58N 44°07' E 028°39'0 0.0
2017-Oct-10 03:28N 44°07' E 028°39'0 0.0
2017-Oct-10 02:58N 44°07' E 028°39'0 0.0
2017-Oct-10 02:28N 44°07' E 028°39'0 0.0
2017-Oct-10 01:58N 44°07' E 028°39'0 0.0
2017-Oct-10 01:28N 44°07' E 028°39'0 0.0
2017-Oct-10 00:58N 44°07' E 028°39'0 0.0
2017-Oct-10 00:28N 44°07' E 028°39'0 0.0
2017-Oct-09 23:58N 44°07' E 028°39'0 0.0
2017-Oct-09 23:28N 44°07' E 028°39'0 0.0
2017-Oct-09 22:58N 44°07' E 028°39'0 0.0
2017-Oct-09 22:28N 44°07' E 028°39'0 0.0
2017-Oct-09 21:58N 44°07' E 028°39'0 0.0
2017-Oct-09 21:28N 44°07' E 028°39'0 0.0
2017-Oct-09 20:58N 44°07' E 028°39'0 0.0
2017-Oct-09 20:28N 44°07' E 028°39'0 0.0
2017-Oct-09 19:58N 44°07' E 028°39'0 0.0
2017-Oct-09 19:28N 44°07' E 028°39'0 0.0
2017-Oct-09 18:58N 44°07' E 028°39'0 0.0
2017-Oct-09 18:28N 44°07' E 028°39'0 0.0
2017-Oct-09 17:58N 44°07' E 028°39'0 0.0
2017-Oct-09 17:28N 44°07' E 028°39'0 0.0
2017-Oct-09 16:58N 44°07' E 028°39'0 0.0
2017-Oct-09 16:25N 44°07' E 028°39'0 0.0
2017-Oct-09 15:58N 44°07' E 028°39'0 0.0
2017-Oct-09 15:28N 44°07' E 028°39'0 0.0
2017-Oct-09 14:58N 44°07' E 028°39'0 0.0
2017-Oct-09 14:25N 44°07' E 028°39'0 0.0
2017-Oct-09 13:58N 44°07' E 028°39'0 0.0
2017-Oct-09 13:28N 44°07' E 028°39'0 0.0
2017-Oct-09 12:58N 44°07' E 028°39'0 0.0
2017-Oct-09 12:28N 44°07' E 028°39'0 0.0
2017-Oct-09 11:58N 44°07' E 028°39'0 0.0
2017-Oct-09 11:28N 44°07' E 028°39'0 0.0
2017-Oct-09 10:58N 44°07' E 028°39'0 0.0
2017-Oct-09 10:28N 44°07' E 028°39'0 0.0
2017-Oct-09 09:58N 44°07' E 028°39'0 0.0
2017-Oct-09 09:28N 44°07' E 028°39'0 0.0
2017-Oct-09 08:58N 44°07' E 028°39'0 0.0
2017-Oct-09 08:28N 44°07' E 028°39'0 0.0
2017-Oct-09 07:58N 44°07' E 028°39'0 0.0
2017-Oct-09 07:28N 44°07' E 028°39'0 0.0
2017-Oct-09 06:55N 44°07' E 028°39'0 0.0
2017-Oct-09 06:28N 44°07' E 028°39'0 0.0
2017-Oct-09 05:58N 44°07' E 028°39'0 0.0
2017-Oct-09 05:28N 44°07' E 028°39'0 0.0
2017-Oct-09 04:58N 44°07' E 028°39'0 0.0
2017-Oct-09 04:28N 44°07' E 028°39'0 0.0
2017-Oct-09 03:55N 44°07' E 028°39'0 0.0
2017-Oct-09 03:28N 44°07' E 028°39'0 0.0
2017-Oct-09 02:58N 44°07' E 028°39'0 0.0
2017-Oct-09 02:28N 44°07' E 028°39'0 0.0
2017-Oct-09 01:58N 44°07' E 028°39'0 0.0
2017-Oct-09 01:28N 44°07' E 028°39'0 0.0
2017-Oct-09 00:58N 44°07' E 028°39'0 0.0
2017-Oct-09 00:28N 44°07' E 028°39'0 0.0
2017-Oct-08 23:58N 44°07' E 028°39'0 0.0
2017-Oct-08 23:28N 44°07' E 028°39'0 0.0
2017-Oct-08 22:58N 44°07' E 028°39'0 0.0
2017-Oct-08 22:28N 44°07' E 028°39'0 0.0
2017-Oct-08 21:55N 44°07' E 028°39'0 0.0
2017-Oct-08 21:28N 44°07' E 028°39'0 0.0
2017-Oct-08 20:58N 44°07' E 028°39'0 0.0
2017-Oct-08 20:28N 44°07' E 028°39'0 0.0
2017-Oct-08 19:58N 44°07' E 028°39'0 0.0
2017-Oct-08 19:28N 44°07' E 028°39'0 0.0
2017-Oct-08 18:58N 44°07' E 028°39'0 0.0
2017-Oct-08 18:28N 44°07' E 028°39'0 0.0
2017-Oct-08 17:58N 44°07' E 028°39'0 0.0
2017-Oct-08 17:28N 44°07' E 028°39'0 0.0
2017-Oct-08 16:58N 44°07' E 028°39'0 0.0
2017-Oct-08 16:28N 44°07' E 028°39'0 0.0
2017-Oct-08 15:58N 44°07' E 028°39'0 0.0
2017-Oct-08 15:28N 44°07' E 028°39'0 0.0
2017-Oct-08 14:58N 44°07' E 028°39'0 0.0
2017-Oct-08 14:28N 44°07' E 028°39'0 0.0
2017-Oct-08 13:58N 44°07' E 028°39'0 0.0
2017-Oct-08 13:28N 44°07' E 028°39'0 0.0
2017-Oct-08 12:58N 44°07' E 028°39'0 0.0
2017-Oct-08 12:22N 44°07' E 028°39'0 0.0
2017-Oct-08 11:58N 44°07' E 028°39'0 0.0
2017-Oct-08 11:28N 44°07' E 028°39'0 0.0
2017-Oct-08 10:58N 44°07' E 028°39'0 0.0
2017-Oct-08 10:28N 44°07' E 028°39'0 0.0
2017-Oct-08 09:58N 44°07' E 028°39'0 0.0
2017-Oct-08 09:28N 44°07' E 028°39'0 0.0
2017-Oct-08 08:58N 44°07' E 028°39'0 0.0
2017-Oct-08 08:25N 44°07' E 028°39'0 0.0
2017-Oct-08 07:58N 44°07' E 028°39'0 0.0
2017-Oct-08 07:28N 44°07' E 028°39'0 0.0
2017-Oct-08 06:58N 44°07' E 028°39'0 0.0
2017-Oct-08 06:28N 44°07' E 028°39'0 0.0
2017-Oct-08 05:58N 44°07' E 028°39'0 0.0
2017-Oct-08 05:28N 44°07' E 028°39'0 0.0
2017-Oct-08 04:55N 44°07' E 028°39'0 0.0
2017-Oct-08 04:28N 44°07' E 028°39'0 0.0
2017-Oct-08 03:58N 44°07' E 028°39'0 0.0
2017-Oct-08 03:28N 44°07' E 028°39'0 0.0
2017-Oct-08 02:58N 44°07' E 028°39'0 0.0
2017-Oct-08 02:28N 44°07' E 028°39'0 0.0
2017-Oct-08 01:52N 44°07' E 028°39'0 0.0
2017-Oct-08 01:28N 44°07' E 028°39'0 0.0
2017-Oct-08 00:58N 44°07' E 028°39'0 0.0
2017-Oct-08 00:28N 44°07' E 028°39'0 0.0
2017-Oct-07 23:58N 44°07' E 028°39'0 0.0
2017-Oct-07 23:28N 44°07' E 028°39'0 0.0
2017-Oct-07 22:58N 44°07' E 028°39'0 0.0
2017-Oct-07 22:28N 44°07' E 028°39'0 0.0
2017-Oct-07 21:58N 44°07' E 028°39'0 0.0
2017-Oct-07 21:28N 44°07' E 028°39'0 0.0
2017-Oct-07 20:58N 44°07' E 028°39'0 0.0
2017-Oct-07 20:28N 44°07' E 028°39'0 0.0
2017-Oct-07 19:58N 44°07' E 028°39'0 0.0
2017-Oct-07 19:28N 44°07' E 028°39'0 0.0
2017-Oct-07 18:58N 44°07' E 028°39'0 0.0
2017-Oct-07 18:28N 44°07' E 028°39'0 0.0
2017-Oct-07 17:58N 44°07' E 028°39'0 0.0
2017-Oct-07 17:28N 44°07' E 028°39'0 0.0
2017-Oct-07 16:58N 44°07' E 028°39'0 0.0
2017-Oct-07 16:28N 44°07' E 028°39'0 0.0
2017-Oct-07 15:58N 44°07' E 028°39'0 0.0
2017-Oct-07 15:28N 44°07' E 028°39'0 0.0
2017-Oct-07 14:58N 44°07' E 028°39'0 0.0
2017-Oct-07 14:28N 44°07' E 028°39'0 0.0
2017-Oct-07 13:58N 44°07' E 028°39'0 0.0
2017-Oct-07 13:25N 44°07' E 028°39'0 0.0
2017-Oct-07 12:58N 44°07' E 028°39'0 0.0
2017-Oct-07 12:28N 44°07' E 028°39'0 0.0
2017-Oct-07 11:58N 44°07' E 028°39'0 0.0
2017-Oct-07 11:28N 44°07' E 028°39'0 0.0
2017-Oct-07 10:58N 44°07' E 028°39'0 0.0
2017-Oct-07 10:28N 44°07' E 028°39'0 0.0
2017-Oct-07 09:58N 44°07' E 028°39'0 0.0
2017-Oct-07 09:28N 44°07' E 028°39'0 0.0
2017-Oct-07 08:58N 44°07' E 028°39'0 0.0
2017-Oct-07 08:28N 44°07' E 028°39'0 0.0
2017-Oct-07 07:58N 44°07' E 028°39'0 0.0
2017-Oct-07 07:28N 44°07' E 028°39'0 0.0
2017-Oct-07 06:58N 44°07' E 028°39'0 0.0
2017-Oct-07 06:28N 44°07' E 028°39'0 0.0
2017-Oct-07 05:55N 44°07' E 028°39'0 0.0
2017-Oct-07 05:28N 44°07' E 028°39'0 0.0
2017-Oct-07 04:58N 44°07' E 028°39'0 0.0
2017-Oct-07 04:28N 44°07' E 028°39'0 0.0
2017-Oct-07 03:58N 44°07' E 028°39'0 0.0
2017-Oct-07 03:28N 44°07' E 028°39'0 0.0
2017-Oct-07 02:52N 44°07' E 028°39'0 0.0
2017-Oct-07 02:28N 44°07' E 028°39'0 0.0
2017-Oct-07 01:58N 44°07' E 028°39'0 0.0
2017-Oct-07 01:28N 44°07' E 028°39'0 0.0
2017-Oct-07 00:55N 44°07' E 028°39'0 0.0
2017-Oct-07 00:28N 44°07' E 028°39'0 0.0
2017-Oct-06 23:58N 44°07' E 028°39'0 0.0
2017-Oct-06 23:28N 44°07' E 028°39'0 0.0
2017-Oct-06 22:58N 44°07' E 028°39'0 0.0
2017-Oct-06 22:28N 44°07' E 028°39'0 0.0
2017-Oct-06 21:58N 44°07' E 028°39'0 0.0
2017-Oct-06 21:28N 44°07' E 028°39'0 0.0
2017-Oct-06 20:58N 44°07' E 028°39'0 0.0
2017-Oct-06 20:25N 44°07' E 028°39'0 0.0
2017-Oct-06 19:58N 44°07' E 028°39'0 0.0
2017-Oct-06 19:28N 44°07' E 028°39'0 0.0
2017-Oct-06 18:58N 44°07' E 028°39'0 0.0
2017-Oct-06 18:28N 44°07' E 028°39'0 0.0
2017-Oct-06 17:58N 44°07' E 028°39'0 0.0
2017-Oct-06 17:28N 44°07' E 028°39'0 0.0
2017-Oct-06 16:58N 44°07' E 028°39'0 0.0
2017-Oct-06 16:28N 44°07' E 028°39'0 0.0
2017-Oct-06 15:58N 44°07' E 028°39'0 0.0
2017-Oct-06 15:28N 44°07' E 028°39'0 0.0
2017-Oct-06 14:58N 44°07' E 028°39'0 0.0
2017-Oct-06 14:28N 44°07' E 028°39'0 0.0
2017-Oct-06 13:58N 44°07' E 028°39'0 0.0
2017-Oct-06 13:28N 44°07' E 028°39'0 0.0
2017-Oct-06 12:58N 44°07' E 028°39'0 0.0
2017-Oct-06 12:10N 44°07' E 028°39'0 0.0
2017-Oct-06 11:58N 44°07' E 028°39'0 0.0
2017-Oct-06 11:22N 44°07' E 028°39'0 0.0
2017-Oct-06 10:58N 44°07' E 028°39'0 0.0
2017-Oct-06 10:28N 44°07' E 028°39'0 0.0
2017-Oct-06 09:58N 44°07' E 028°39'0 0.0
2017-Oct-06 09:28N 44°07' E 028°39'0 0.0
2017-Oct-06 08:58N 44°07' E 028°39'0 0.0
2017-Oct-06 08:28N 44°07' E 028°39'0 0.0
2017-Oct-06 07:58N 44°07' E 028°39'0 0.0
2017-Oct-06 07:28N 44°07' E 028°39'0 0.0
2017-Oct-06 06:58N 44°07' E 028°39'0 0.0
2017-Oct-06 06:28N 44°07' E 028°39'0 0.0
2017-Oct-06 05:58N 44°07' E 028°39'0 0.0
2017-Oct-06 05:28N 44°07' E 028°39'0 0.0
2017-Oct-06 04:58N 44°07' E 028°39'0 0.0
2017-Oct-06 04:28N 44°07' E 028°39'0 0.0
2017-Oct-06 03:55N 44°07' E 028°39'0 0.0
2017-Oct-06 03:28N 44°07' E 028°39'0 0.0
2017-Oct-06 02:58N 44°07' E 028°39'0 0.0
2017-Oct-06 02:28N 44°07' E 028°39'0 0.0
2017-Oct-06 01:58N 44°07' E 028°39'0 0.0
2017-Oct-06 01:28N 44°07' E 028°39'0 0.0
2017-Oct-06 00:58N 44°07' E 028°39'0 0.0
2017-Oct-06 00:28N 44°07' E 028°39'0 0.0
2017-Oct-05 23:58N 44°07' E 028°39'0 0.0
2017-Oct-05 23:28N 44°07' E 028°39'0 0.0
2017-Oct-05 22:55N 44°07' E 028°39'0 0.0
2017-Oct-05 22:28N 44°07' E 028°39'0 0.0
2017-Oct-05 21:58N 44°07' E 028°39'0 0.0
2017-Oct-05 21:28N 44°07' E 028°39'0 0.0
2017-Oct-05 20:55N 44°07' E 028°39'0 0.0
2017-Oct-05 20:25N 44°07' E 028°39'0 0.0
2017-Oct-05 19:58N 44°07' E 028°39'0 0.0
2017-Oct-05 19:28N 44°07' E 028°39'0 0.0
2017-Oct-05 18:58N 44°07' E 028°39'0 0.0
2017-Oct-05 18:28N 44°07' E 028°39'0 0.0
2017-Oct-05 17:58N 44°07' E 028°39'0 0.0
2017-Oct-05 17:28N 44°07' E 028°39'0 0.0
2017-Oct-05 16:58N 44°07' E 028°39'0 0.0
2017-Oct-05 15:28N 44°07' E 028°39'0 0.0
2017-Oct-05 14:58N 44°07' E 028°39'0 0.0
2017-Oct-05 14:28N 44°07' E 028°39'0 0.0
2017-Oct-05 13:58N 44°07' E 028°39'0 0.0
2017-Oct-05 13:28N 44°07' E 028°39'0 0.0
2017-Oct-05 12:58N 44°07' E 028°39'0 0.0
2017-Oct-05 12:28N 44°07' E 028°39'0 0.0
2017-Oct-05 11:55N 44°07' E 028°39'0 0.0
2017-Oct-05 11:28N 44°07' E 028°39'0 0.0
2017-Oct-05 10:58N 44°07' E 028°39'0 0.0
2017-Oct-05 10:28N 44°07' E 028°39'0 0.0
2017-Oct-05 09:58N 44°07' E 028°39'0 0.0
2017-Oct-05 09:28N 44°07' E 028°39'0 0.0
2017-Oct-05 08:58N 44°07' E 028°39'0 0.0
2017-Oct-05 08:28N 44°07' E 028°39'0 0.0
2017-Oct-05 07:58N 44°07' E 028°39'0 0.0
2017-Oct-05 07:28N 44°07' E 028°39'0 0.0
2017-Oct-05 06:58N 44°07' E 028°39'0 0.0
2017-Oct-05 06:28N 44°07' E 028°39'0 0.0
2017-Oct-05 05:58N 44°07' E 028°39'0 0.0
2017-Oct-05 05:28N 44°07' E 028°39'0 0.0
2017-Oct-05 04:58N 44°07' E 028°39'0 0.0
2017-Oct-05 04:28N 44°07' E 028°39'0 0.0
2017-Oct-05 03:58N 44°07' E 028°39'0 0.0
2017-Oct-05 03:28N 44°07' E 028°39'0 0.0
2017-Oct-05 02:58N 44°07' E 028°39'0 0.0
2017-Oct-05 02:28N 44°07' E 028°39'0 0.0
2017-Oct-05 01:58N 44°07' E 028°39'0 0.0
2017-Oct-05 01:28N 44°07' E 028°39'0 0.0
2017-Oct-05 00:58N 44°07' E 028°39'0 0.0
2017-Oct-05 00:28N 44°07' E 028°39'0 0.0
2017-Oct-04 23:58N 44°07' E 028°39'0 0.0
2017-Oct-04 23:28N 44°07' E 028°39'0 0.0
2017-Oct-04 22:58N 44°07' E 028°39'0 0.0
2017-Oct-04 22:28N 44°07' E 028°39'0 0.0
2017-Oct-04 21:58N 44°07' E 028°39'0 0.0
2017-Oct-04 21:28N 44°07' E 028°39'0 0.0
2017-Oct-04 20:52N 44°07' E 028°39'0 0.0
2017-Oct-04 20:28N 44°07' E 028°39'0 0.0
2017-Oct-04 19:58N 44°07' E 028°39'0 0.0
2017-Oct-04 19:19N 44°07' E 028°39'0 0.0
2017-Oct-04 18:58N 44°07' E 028°39'0 0.0
2017-Oct-04 18:28N 44°07' E 028°39'0 0.0
2017-Oct-04 17:55N 44°07' E 028°39'0 0.0
2017-Oct-04 17:28N 44°07' E 028°39'0 0.0
2017-Oct-04 16:58N 44°07' E 028°39'0 0.0
2017-Oct-04 16:28N 44°07' E 028°39'0 0.0
2017-Oct-04 15:58N 44°07' E 028°39'0 0.0
2017-Oct-04 15:25N 44°07' E 028°39'0 0.0
2017-Oct-04 14:58N 44°07' E 028°39'0 0.0
2017-Oct-04 14:28N 44°07' E 028°39'0 0.0
2017-Oct-04 13:58N 44°07' E 028°39'0 0.0
2017-Oct-04 13:28N 44°07' E 028°39'0 0.0
2017-Oct-04 12:58N 44°07' E 028°39'0 0.0
2017-Oct-04 12:28N 44°07' E 028°39'0 0.0
2017-Oct-04 11:58N 44°07' E 028°39'0 0.0
2017-Oct-04 11:28N 44°07' E 028°39'0 0.0
2017-Oct-04 10:58N 44°07' E 028°39'0 0.0
2017-Oct-04 10:28N 44°07' E 028°39'0 0.0
2017-Oct-04 09:55N 44°07' E 028°39'0 0.0
2017-Oct-04 09:28N 44°07' E 028°39'0 0.0
2017-Oct-04 08:58N 44°07' E 028°39'0 0.0
2017-Oct-04 08:28N 44°07' E 028°39'0 0.0
2017-Oct-04 07:58N 44°07' E 028°39'0 0.0
2017-Oct-04 07:28N 44°07' E 028°39'0 0.0
2017-Oct-04 06:58N 44°07' E 028°39'0 0.0
2017-Oct-04 06:28N 44°07' E 028°39'0 0.0
2017-Oct-04 05:58N 44°07' E 028°39'0 0.0
2017-Oct-04 05:28N 44°07' E 028°39'0 0.0
2017-Oct-04 04:58N 44°07' E 028°39'0 0.0
2017-Oct-04 04:28N 44°07' E 028°39'0 0.0
2017-Oct-04 03:55N 44°07' E 028°39'0 0.0
2017-Oct-04 03:28N 44°07' E 028°39'0 0.0
2017-Oct-04 02:58N 44°07' E 028°39'0 0.0
2017-Oct-04 02:28N 44°07' E 028°39'0 0.0
2017-Oct-04 01:58N 44°07' E 028°39'0 0.0
2017-Oct-04 01:28N 44°07' E 028°39'0 0.0
2017-Oct-04 00:58N 44°07' E 028°39'0 0.0
2017-Oct-04 00:28N 44°07' E 028°39'0 0.0
2017-Oct-03 23:58N 44°07' E 028°39'0 0.0
2017-Oct-03 23:28N 44°07' E 028°39'0 0.0
2017-Oct-03 22:58N 44°07' E 028°39'0 0.0
2017-Oct-03 22:28N 44°07' E 028°39'0 0.0
2017-Oct-03 21:58N 44°07' E 028°39'0 0.0
2017-Oct-03 21:25N 44°07' E 028°39'0 0.0
2017-Oct-03 20:58N 44°07' E 028°39'0 0.0
2017-Oct-03 20:28N 44°07' E 028°39'0 0.0
2017-Oct-03 19:58N 44°07' E 028°39'0 0.0
2017-Oct-03 19:28N 44°07' E 028°39'0 0.0
2017-Oct-03 18:58N 44°07' E 028°39'0 0.0
2017-Oct-03 18:28N 44°07' E 028°39'0 0.0
2017-Oct-03 17:58N 44°07' E 028°39'0 0.0
2017-Oct-03 17:28N 44°07' E 028°39'0 0.0
2017-Oct-03 16:58N 44°07' E 028°39'0 0.0
2017-Oct-03 16:28N 44°07' E 028°39'0 0.0
2017-Oct-03 15:58N 44°07' E 028°39'0 0.0
2017-Oct-03 15:28N 44°07' E 028°39'0 0.0
2017-Oct-03 14:58N 44°07' E 028°39'0 0.0
2017-Oct-03 13:55N 44°07' E 028°39'0 0.0
2017-Oct-03 13:28N 44°07' E 028°39'0 0.0
2017-Oct-03 12:58N 44°07' E 028°39'0 0.0
2017-Oct-03 12:28N 44°07' E 028°39'0 0.0
2017-Oct-03 11:58N 44°07' E 028°39'0 0.0
2017-Oct-03 11:28N 44°07' E 028°39'0 0.0
2017-Oct-03 10:58N 44°07' E 028°39'0 0.0
2017-Oct-03 10:28N 44°07' E 028°39'0 0.0
2017-Oct-03 09:58N 44°07' E 028°39'0 0.0
2017-Oct-03 09:28N 44°07' E 028°39'0 0.0
2017-Oct-03 08:55N 44°07' E 028°39'0 0.0
2017-Oct-03 08:28N 44°07' E 028°39'0 0.0
2017-Oct-03 07:58N 44°07' E 028°39'0 0.0
2017-Oct-03 07:28N 44°07' E 028°39'0 0.0
2017-Oct-03 06:58N 44°07' E 028°39'0 0.0
2017-Oct-03 06:28N 44°07' E 028°39'0 0.0
2017-Oct-03 05:58N 44°07' E 028°39'0 0.0
2017-Oct-03 05:28N 44°07' E 028°39'0 0.0
2017-Oct-03 04:58N 44°07' E 028°39'0 0.0
2017-Oct-03 04:28N 44°07' E 028°39'0 0.0
2017-Oct-03 03:58N 44°07' E 028°39'0 0.0
2017-Oct-03 03:25N 44°07' E 028°39'0 0.0
2017-Oct-03 02:58N 44°07' E 028°39'0 0.0
2017-Oct-03 02:28N 44°07' E 028°39'0 0.0
2017-Oct-03 01:58N 44°07' E 028°39'0 0.0
2017-Oct-03 01:28N 44°07' E 028°39'0 0.0
2017-Oct-03 00:58N 44°07' E 028°39'0 0.0
2017-Oct-03 00:28N 44°07' E 028°39'0 0.0
2017-Oct-02 23:58N 44°07' E 028°39'0 0.0
2017-Oct-02 23:28N 44°07' E 028°39'0 0.0
2017-Oct-02 22:58N 44°07' E 028°39'0 0.0
2017-Oct-02 22:28N 44°07' E 028°39'0 0.0
2017-Oct-02 21:58N 44°07' E 028°39'0 0.0
2017-Oct-02 21:25N 44°07' E 028°39'0 0.0
2017-Oct-02 20:55N 44°07' E 028°39'0 0.0
2017-Oct-02 20:25N 44°07' E 028°39'0 0.0
2017-Oct-02 19:58N 44°07' E 028°39'0 0.0
2017-Oct-02 19:28N 44°07' E 028°39'0 0.0
2017-Oct-02 18:55N 44°07' E 028°39'0 0.0
2017-Oct-02 18:28N 44°07' E 028°39'0 0.0
2017-Oct-02 17:58N 44°07' E 028°39'0 0.0
2017-Oct-02 17:28N 44°07' E 028°39'0 0.0
2017-Oct-02 16:55N 44°07' E 028°39'0 0.0
2017-Oct-02 16:28N 44°07' E 028°39'2 5.0
2017-Oct-02 16:01N 44°09' E 028°40'0 0.2
2017-Oct-02 15:28N 44°09' E 028°40'0 0.0
2017-Oct-02 14:58N 44°09' E 028°40'0 0.0
2017-Oct-02 14:28N 44°09' E 028°40'0 0.0
2017-Oct-02 13:58N 44°09' E 028°40'0 0.0
2017-Oct-02 13:28N 44°09' E 028°40'0 0.0
2017-Oct-02 12:58N 44°09' E 028°40'0 0.0
2017-Oct-02 12:28N 44°09' E 028°40'1 1.6
2017-Oct-02 12:00N 44°09' E 028°40'2 3.3
2017-Oct-02 11:31N 44°07' E 028°39'1 1.9
2017-Oct-02 11:00N 44°06' E 028°39'0 0.0
2017-Oct-02 10:30N 44°06' E 028°39'  

Dump ship's entire track history